Time;durP1;ratioP1;P1;durP2;ratioP2;P2;SDS_P1;SDS_P2;PMS_P1;PMS_P2;Temp;Humidity;BMP_temperature;BMP_pressure;BME280_temperature;BME280_humidity;BME280_pressure;Samples;Min_cycle;Max_cycle;Signal;HPM_P1;HPM_P2
2020/12/02 00:00:42;;;;;;;10.90;7.82;;;;;;;;;;2080555;28;20025;-63
2020/12/02 00:02:01;;;;;;;10.65;7.88;;;;;;;;;;2081373;28;20044;-63
2020/12/02 00:03:40;;;;;;;11.15;7.75;;;;;;;;;;2081923;28;20017;-64
2020/12/02 00:05:02;;;;;;;9.07;7.60;;;;;;;;;;2081635;28;20021;-63
2020/12/02 00:06:22;;;;;;;11.57;7.97;;;;;;;;;;2081522;28;20049;-62
2020/12/02 00:07:41;;;;;;;12.82;8.43;;;;;;;;;;2082371;28;20033;-63
2020/12/02 00:09:05;;;;;;;9.80;8.05;;;;;;;;;;2082049;28;20108;-63
2020/12/02 00:10:25;;;;;;;9.10;6.55;;;;;;;;;;2078413;28;20033;-63
2020/12/02 00:11:44;;;;;;;7.13;5.82;;;;;;;;;;2082604;28;20053;-63
2020/12/02 00:13:09;;;;;;;6.95;6.25;;;;;;;;;;2082565;28;20466;-63
2020/12/02 00:14:29;;;;;;;8.05;5.97;;;;;;;;;;2078757;28;20033;-63
2020/12/02 00:15:48;;;;;;;7.78;6.57;;;;;;;;;;2081226;28;20461;-63
2020/12/02 00:17:14;;;;;;;8.93;7.22;;;;;;;;;;2081287;28;20029;-63
2020/12/02 00:18:36;;;;;;;8.20;6.50;;;;;;;;;;2081628;28;20029;-63
2020/12/02 00:19:54;;;;;;;5.70;5.15;;;;;;;;;;2081937;28;20053;-63
2020/12/02 00:21:13;;;;;;;6.60;5.68;;;;;;;;;;2077883;28;20025;-63
2020/12/02 00:22:32;;;;;;;7.57;6.25;;;;;;;;;;2078942;28;20034;-63
2020/12/02 00:23:52;;;;;;;6.70;5.40;;;;;;;;;;2081906;28;20033;-63
2020/12/02 00:25:11;;;;;;;7.15;5.82;;;;;;;;;;2077766;28;20053;-63
2020/12/02 00:26:30;;;;;;;6.10;5.50;;;;;;;;;;2081068;28;20041;-63
2020/12/02 00:27:49;;;;;;;6.65;5.15;;;;;;;;;;2080999;28;20034;-63
2020/12/02 00:29:08;;;;;;;8.50;5.57;;;;;;;;;;2078337;28;20029;-63
2020/12/02 00:30:27;;;;;;;7.32;5.82;;;;;;;;;;2077502;28;20037;-65
2020/12/02 00:31:46;;;;;;;6.68;5.88;;;;;;;;;;2082607;28;20025;-63
2020/12/02 00:33:09;;;;;;;6.35;5.75;;;;;;;;;;2081195;28;20465;-64
2020/12/02 00:34:28;;;;;;;5.97;5.38;;;;;;;;;;2081983;28;20033;-64
2020/12/02 00:35:47;;;;;;;6.28;5.55;;;;;;;;;;2079114;28;20022;-63
2020/12/02 00:37:06;;;;;;;6.10;5.50;;;;;;;;;;2082230;28;20025;-64
2020/12/02 00:38:25;;;;;;;6.40;5.40;;;;;;;;;;2081112;28;20033;-63
2020/12/02 00:39:44;;;;;;;7.07;4.97;;;;;;;;;;2081155;28;20018;-64
2020/12/02 00:41:03;;;;;;;6.18;5.30;;;;;;;;;;2081437;28;20034;-63
2020/12/02 00:42:22;;;;;;;5.45;4.93;;;;;;;;;;2077021;28;20025;-64
2020/12/02 00:43:40;;;;;;;4.70;4.40;;;;;;;;;;2081856;28;20033;-63
2020/12/02 00:44:59;;;;;;;5.65;4.72;;;;;;;;;;2080425;28;20037;-64
2020/12/02 00:46:18;;;;;;;5.57;4.38;;;;;;;;;;2080009;28;20022;-63
2020/12/02 00:47:37;;;;;;;4.45;4.05;;;;;;;;;;2080645;28;20033;-63
2020/12/02 00:48:56;;;;;;;4.43;4.03;;;;;;;;;;2082311;28;20646;-63
2020/12/02 00:50:15;;;;;;;6.70;4.30;;;;;;;;;;2081815;28;20486;-64
2020/12/02 00:51:34;;;;;;;4.45;4.05;;;;;;;;;;2082015;28;20033;-63
2020/12/02 00:53:04;;;;;;;5.05;4.60;;;;;;;;;;2081495;28;20030;-63
2020/12/02 00:54:22;;;;;;;4.55;4.15;;;;;;;;;;2081573;28;20108;-63
2020/12/02 00:55:42;;;;;;;4.68;4.28;;;;;;;;;;2080475;28;20034;-63
2020/12/02 00:57:01;;;;;;;5.28;4.53;;;;;;;;;;2081499;28;20021;-63
2020/12/02 00:58:26;;;;;;;4.70;4.30;;;;;;;;;;2080705;28;20100;-63
2020/12/02 00:59:48;;;;;;;4.75;4.35;;;;;;;;;;2080968;28;20030;-63
2020/12/02 01:01:08;;;;;;;5.18;4.78;;;;;;;;;;2079484;28;20393;-63
2020/12/02 01:02:27;;;;;;;5.80;5.20;;;;;;;;;;2078075;28;20041;-63
2020/12/02 01:03:47;;;;;;;4.80;4.40;;;;;;;;;;2076912;28;20037;-64
2020/12/02 01:05:11;;;;;;;5.85;5.22;;;;;;;;;;2081346;28;20120;-63
2020/12/02 01:06:31;;;;;;;5.13;4.63;;;;;;;;;;2079476;28;20026;-63
2020/12/02 01:07:49;;;;;;;6.68;5.60;;;;;;;;;;2081260;28;20041;-63
2020/12/02 01:09:09;;;;;;;4.88;4.38;;;;;;;;;;2079399;28;20042;-63
2020/12/02 01:10:27;;;;;;;4.32;4.03;;;;;;;;;;2076705;28;20045;-63
2020/12/02 01:11:48;;;;;;;4.30;3.90;;;;;;;;;;2081620;28;20394;-63
2020/12/02 01:13:07;;;;;;;4.85;3.75;;;;;;;;;;2080103;28;20029;-65
2020/12/02 01:14:26;;;;;;;4.85;4.45;;;;;;;;;;2080531;28;20021;-63
2020/12/02 01:15:45;;;;;;;5.07;4.65;;;;;;;;;;2079529;28;20047;-64
2020/12/02 01:17:04;;;;;;;4.72;4.32;;;;;;;;;;2080915;28;20105;-63
2020/12/02 01:18:26;;;;;;;4.57;4.18;;;;;;;;;;2082048;28;20026;-63
2020/12/02 01:19:45;;;;;;;4.85;4.45;;;;;;;;;;2081616;28;20030;-64
2020/12/02 01:21:13;;;;;;;3.80;3.50;;;;;;;;;;2079111;28;20037;-63
2020/12/02 01:22:42;;;;;;;4.32;4.03;;;;;;;;;;2077814;28;20425;-64
2020/12/02 01:24:02;;;;;;;4.53;4.13;;;;;;;;;;2077568;28;20030;-63
2020/12/02 01:25:25;;;;;;;5.18;4.72;;;;;;;;;;2081733;28;20033;-63
2020/12/02 01:26:56;;;;;;;4.28;3.88;;;;;;;;;;2081312;28;20026;-63
2020/12/02 01:28:19;;;;;;;3.50;3.20;;;;;;;;;;2075744;28;20417;-64
2020/12/02 01:29:38;;;;;;;;;;;;;;;;;;2078850;28;20065;-64
2020/12/02 01:30:58;;;;;;;4.50;4.10;;;;;;;;;;2080551;28;19953;-63
2020/12/02 01:32:17;;;;;;;3.67;3.38;;;;;;;;;;2076648;28;20026;-63
2020/12/02 01:33:35;;;;;;;4.20;3.80;;;;;;;;;;2081636;28;20104;-63
2020/12/02 01:34:54;;;;;;;3.92;3.63;;;;;;;;;;2078076;28;20026;-63
2020/12/02 01:36:14;;;;;;;3.78;3.47;;;;;;;;;;2081599;28;20029;-63
2020/12/02 01:37:34;;;;;;;3.88;3.58;;;;;;;;;;2080516;28;20033;-63
2020/12/02 01:38:54;;;;;;;4.00;3.70;;;;;;;;;;2080984;28;20021;-63
2020/12/02 01:40:15;;;;;;;4.03;3.72;;;;;;;;;;2079374;28;20108;-63
2020/12/02 01:41:34;;;;;;;4.60;4.20;;;;;;;;;;2080621;28;20021;-63
2020/12/02 01:43:00;;;;;;;3.75;3.45;;;;;;;;;;2078795;28;20017;-63
2020/12/02 01:44:19;;;;;;;3.10;2.90;;;;;;;;;;2080761;28;20033;-63
2020/12/02 01:45:38;;;;;;;3.70;3.38;;;;;;;;;;2078152;28;20477;-63
2020/12/02 01:47:10;;;;;;;3.97;3.67;;;;;;;;;;2076560;28;20033;-64
2020/12/02 01:48:48;;;;;;;4.03;3.72;;;;;;;;;;2076066;28;20029;-63
2020/12/02 01:50:13;;;;;;;4.00;3.70;;;;;;;;;;2081337;28;20034;-64
2020/12/02 01:51:32;;;;;;;2.92;2.72;;;;;;;;;;2081994;28;20037;-63
2020/12/02 01:52:54;;;;;;;3.55;3.33;;;;;;;;;;2075256;28;20029;-62
2020/12/02 01:54:17;;;;;;;3.72;3.40;;;;;;;;;;2079272;28;20116;-63
2020/12/02 01:55:40;;;;;;;2.70;2.50;;;;;;;;;;2073445;28;20034;-64
2020/12/02 01:57:09;;;;;;;2.00;1.90;;;;;;;;;;2081720;28;20108;-63
2020/12/02 01:58:36;;;;;;;1.77;1.67;;;;;;;;;;2079545;28;20025;-63
2020/12/02 01:59:58;;;;;;;2.83;2.10;;;;;;;;;;2080031;28;20402;-63
2020/12/02 02:01:27;;;;;;;1.70;1.60;;;;;;;;;;2079728;28;20417;-63
2020/12/02 02:02:59;;;;;;;1.77;1.67;;;;;;;;;;2077955;28;20029;-66
2020/12/02 02:04:19;;;;;;;1.50;1.40;;;;;;;;;;2081138;28;20065;-63
2020/12/02 02:05:57;;;;;;;1.30;1.20;;;;;;;;;;2072217;28;20033;-64
2020/12/02 02:07:18;;;;;;;1.40;1.30;;;;;;;;;;2078531;28;20029;-63
2020/12/02 02:08:39;;;;;;;1.00;1.00;;;;;;;;;;2080472;28;20389;-63
2020/12/02 02:10:01;;;;;;;1.40;1.30;;;;;;;;;;2080773;28;20025;-63
2020/12/02 02:11:21;;;;;;;1.23;1.13;;;;;;;;;;2080600;28;20045;-63
2020/12/02 02:12:56;;;;;;;1.50;1.40;;;;;;;;;;2081029;28;20029;-63
2020/12/02 02:14:38;;;;;;;3.10;1.50;;;;;;;;;;2074549;28;20100;-64
2020/12/02 02:16:00;;;;;;;1.65;1.55;;;;;;;;;;2077447;28;20037;-64
2020/12/02 02:17:19;;;;;;;1.80;1.70;;;;;;;;;;2078420;28;20022;-63
2020/12/02 02:18:38;;;;;;;1.50;1.40;;;;;;;;;;2079064;28;20029;-63
2020/12/02 02:19:58;;;;;;;1.77;1.67;;;;;;;;;;2078989;28;20385;-63
2020/12/02 02:21:20;;;;;;;1.70;1.60;;;;;;;;;;2080374;28;20057;-63
2020/12/02 02:22:39;;;;;;;1.52;1.30;;;;;;;;;;2073845;28;20485;-64
2020/12/02 02:23:58;;;;;;;1.40;1.30;;;;;;;;;;2078874;28;20049;-63
2020/12/02 02:25:17;;;;;;;1.55;1.45;;;;;;;;;;2080536;28;20108;-63
2020/12/02 02:26:39;;;;;;;1.67;1.58;;;;;;;;;;2079755;28;20217;-64
2020/12/02 02:27:58;;;;;;;1.85;1.75;;;;;;;;;;2078622;28;20553;-64
2020/12/02 02:29:22;;;;;;;1.58;1.48;;;;;;;;;;2078145;28;20049;-63
2020/12/02 02:30:41;;;;;;;1.90;1.80;;;;;;;;;;2077227;28;20035;-63
2020/12/02 02:32:01;;;;;;;1.70;1.60;;;;;;;;;;2080284;28;20018;-63
2020/12/02 02:33:21;;;;;;;2.03;1.92;;;;;;;;;;2080200;28;20033;-64
2020/12/02 02:34:41;;;;;;;2.55;1.80;;;;;;;;;;2080141;28;20385;-63
2020/12/02 02:36:00;;;;;;;1.77;1.67;;;;;;;;;;2081042;28;20470;-63
2020/12/02 02:37:19;;;;;;;1.55;1.45;;;;;;;;;;2077653;28;20112;-63
2020/12/02 02:38:38;;;;;;;1.70;1.60;;;;;;;;;;2077116;28;20030;-64
2020/12/02 02:39:59;;;;;;;1.92;1.83;;;;;;;;;;2074003;28;20501;-64
2020/12/02 02:41:19;;;;;;;1.80;1.70;;;;;;;;;;2080198;28;20061;-63
2020/12/02 02:42:40;;;;;;;2.00;1.90;;;;;;;;;;2080108;28;20053;-64
2020/12/02 02:43:59;;;;;;;1.27;1.20;;;;;;;;;;2078580;28;20017;-63
2020/12/02 02:45:25;;;;;;;1.38;1.27;;;;;;;;;;2080301;28;20033;-64
2020/12/02 02:46:44;;;;;;;1.13;1.10;;;;;;;;;;2080296;28;20432;-63
2020/12/02 02:48:06;;;;;;;1.00;1.00;;;;;;;;;;2080151;28;20061;-63
2020/12/02 02:49:24;;;;;;;1.00;1.00;;;;;;;;;;2079955;28;20390;-64
2020/12/02 02:50:43;;;;;;;1.02;1.02;;;;;;;;;;2080476;28;20033;-64
2020/12/02 02:52:02;;;;;;;1.10;1.10;;;;;;;;;;2080307;28;20033;-63
2020/12/02 02:53:22;;;;;;;1.02;1.00;;;;;;;;;;2079677;28;20025;-64
2020/12/02 02:54:41;;;;;;;1.20;1.10;;;;;;;;;;2074701;28;20034;-64
2020/12/02 02:56:00;;;;;;;1.13;1.10;;;;;;;;;;2080903;28;20466;-63
2020/12/02 02:57:19;;;;;;;1.02;1.02;;;;;;;;;;2079595;28;20026;-63
2020/12/02 02:58:38;;;;;;;1.27;1.23;;;;;;;;;;2080208;28;20030;-64
2020/12/02 02:59:57;;;;;;;1.58;1.48;;;;;;;;;;2075316;28;20038;-63
2020/12/02 03:01:16;;;;;;;1.70;1.60;;;;;;;;;;2079407;28;20440;-63
2020/12/02 03:02:34;;;;;;;1.60;1.50;;;;;;;;;;2080658;28;20041;-63
2020/12/02 03:03:53;;;;;;;1.60;1.50;;;;;;;;;;2081525;28;20056;-63
2020/12/02 03:05:14;;;;;;;1.80;1.70;;;;;;;;;;2080156;28;20029;-64
2020/12/02 03:06:32;;;;;;;1.70;1.60;;;;;;;;;;2081162;28;20061;-63
2020/12/02 03:07:54;;;;;;;1.65;1.55;;;;;;;;;;2080623;28;20106;-63
2020/12/02 03:09:14;;;;;;;1.50;1.40;;;;;;;;;;2079031;28;20041;-63
2020/12/02 03:10:34;;;;;;;1.52;1.42;;;;;;;;;;2081027;28;20033;-63
2020/12/02 03:11:54;;;;;;;1.50;1.40;;;;;;;;;;2079105;28;20021;-63
2020/12/02 03:13:17;;;;;;;1.45;1.35;;;;;;;;;;2076493;28;20033;-65
2020/12/02 03:14:41;;;;;;;2.10;2.00;;;;;;;;;;2076550;28;20029;-64
2020/12/02 03:16:01;;;;;;;1.85;1.75;;;;;;;;;;2079434;28;20029;-63
2020/12/02 03:17:22;;;;;;;1.90;1.80;;;;;;;;;;2076763;28;20025;-65
2020/12/02 03:18:42;;;;;;;2.08;1.98;;;;;;;;;;2078321;28;20462;-63
2020/12/02 03:20:07;;;;;;;2.05;1.95;;;;;;;;;;2078720;28;20033;-63
2020/12/02 03:21:26;;;;;;;1.58;1.48;;;;;;;;;;2075973;28;20112;-64
2020/12/02 03:22:46;;;;;;;1.90;1.80;;;;;;;;;;2081195;28;20021;-64
2020/12/02 03:24:07;;;;;;;2.00;1.90;;;;;;;;;;2082898;28;20416;-63
2020/12/02 03:25:28;;;;;;;2.33;2.13;;;;;;;;;;2083094;28;20045;-63
2020/12/02 03:26:48;;;;;;;2.67;2.47;;;;;;;;;;2080358;28;20033;-63
2020/12/02 03:28:07;;;;;;;2.30;2.20;;;;;;;;;;2080875;28;20049;-63
2020/12/02 03:29:26;;;;;;;2.30;2.20;;;;;;;;;;2077845;28;20517;-63
2020/12/02 03:30:45;;;;;;;2.33;2.10;;;;;;;;;;2083065;28;20033;-63
2020/12/02 03:32:04;;;;;;;2.70;2.50;;;;;;;;;;2081977;28;20022;-63
2020/12/02 03:33:23;;;;;;;2.05;1.95;;;;;;;;;;2082598;28;20112;-63
2020/12/02 03:34:41;;;;;;;2.10;2.00;;;;;;;;;;2082073;28;20100;-63
2020/12/02 03:36:00;;;;;;;2.00;1.90;;;;;;;;;;2082586;28;20108;-63
2020/12/02 03:37:19;;;;;;;5.78;2.05;;;;;;;;;;2082881;28;20029;-63
2020/12/02 03:38:39;;;;;;;2.20;2.10;;;;;;;;;;2082561;28;21877;-63
2020/12/02 03:39:57;;;;;;;2.70;2.60;;;;;;;;;;2081593;28;20408;-63
2020/12/02 03:41:17;;;;;;;2.60;2.40;;;;;;;;;;2080058;28;20030;-63
2020/12/02 03:42:36;;;;;;;2.50;2.30;;;;;;;;;;2078268;28;20045;-63
2020/12/02 03:43:54;;;;;;;2.17;2.08;;;;;;;;;;2081947;28;20038;-63
2020/12/02 03:45:13;;;;;;;3.05;2.17;;;;;;;;;;2079052;28;20381;-63
2020/12/02 03:46:32;;;;;;;1.88;1.77;;;;;;;;;;2079965;28;20033;-62
2020/12/02 03:47:51;;;;;;;1.83;1.73;;;;;;;;;;2081368;28;20021;-64
2020/12/02 03:49:10;;;;;;;2.00;1.90;;;;;;;;;;2082658;28;20400;-65
2020/12/02 03:50:29;;;;;;;1.50;1.40;;;;;;;;;;2078089;28;20025;-63
2020/12/02 03:51:48;;;;;;;1.50;1.40;;;;;;;;;;2082274;28;20021;-63
2020/12/02 03:53:07;;;;;;;2.45;2.25;;;;;;;;;;2078909;28;20037;-62
2020/12/02 03:54:26;;;;;;;2.10;2.00;;;;;;;;;;2080615;28;20022;-62
2020/12/02 03:55:46;;;;;;;3.08;2.88;;;;;;;;;;2081005;28;20104;-64
2020/12/02 03:57:04;;;;;;;2.80;2.60;;;;;;;;;;2081118;28;20022;-62
2020/12/02 03:58:23;;;;;;;2.63;2.42;;;;;;;;;;2082299;28;20104;-62
2020/12/02 03:59:42;;;;;;;3.00;2.80;;;;;;;;;;2081852;28;20056;-64
2020/12/02 04:01:02;;;;;;;2.90;2.70;;;;;;;;;;2081442;28;20477;-62
2020/12/02 04:02:20;;;;;;;3.10;2.90;;;;;;;;;;2080761;28;20041;-64
2020/12/02 04:03:39;;;;;;;3.20;2.97;;;;;;;;;;2080529;28;20025;-62
2020/12/02 04:04:58;;;;;;;3.03;2.83;;;;;;;;;;2081091;28;20378;-62
2020/12/02 04:06:17;;;;;;;3.38;3.08;;;;;;;;;;2081753;28;20477;-61
2020/12/02 04:07:36;;;;;;;3.42;3.22;;;;;;;;;;2081531;28;20022;-62
2020/12/02 04:08:54;;;;;;;3.30;3.10;;;;;;;;;;2080392;28;20478;-65
2020/12/02 04:10:14;;;;;;;3.40;3.20;;;;;;;;;;2081790;28;20091;-63
2020/12/02 04:11:33;;;;;;;2.83;2.63;;;;;;;;;;2082603;28;20033;-62
2020/12/02 04:12:51;;;;;;;3.58;3.30;;;;;;;;;;2079838;28;20029;-62
2020/12/02 04:14:11;;;;;;;3.60;3.30;;;;;;;;;;2077972;28;20030;-62
2020/12/02 04:15:30;;;;;;;3.10;2.90;;;;;;;;;;2079901;28;20021;-63
2020/12/02 04:16:49;;;;;;;3.20;3.00;;;;;;;;;;2081406;28;20013;-62
2020/12/02 04:18:08;;;;;;;3.97;3.65;;;;;;;;;;2078997;28;20018;-64
2020/12/02 04:19:27;;;;;;;3.65;3.35;;;;;;;;;;2080885;28;20030;-62
2020/12/02 04:20:46;;;;;;;3.13;2.92;;;;;;;;;;2081376;28;20529;-62
2020/12/02 04:22:05;;;;;;;3.80;3.50;;;;;;;;;;2082220;28;20037;-63
2020/12/02 04:23:24;;;;;;;3.90;3.60;;;;;;;;;;2082359;28;20026;-62
2020/12/02 04:24:43;;;;;;;3.65;3.42;;;;;;;;;;2081544;28;20014;-62
2020/12/02 04:26:02;;;;;;;4.00;3.65;;;;;;;;;;2081538;28;20033;-62
2020/12/02 04:27:21;;;;;;;3.70;3.50;;;;;;;;;;2081687;28;20108;-62
2020/12/02 04:28:40;;;;;;;4.03;3.72;;;;;;;;;;2081045;28;20030;-62
2020/12/02 04:29:59;;;;;;;4.05;3.75;;;;;;;;;;2078623;28;20033;-62
2020/12/02 04:31:18;;;;;;;4.10;3.70;;;;;;;;;;2079364;28;20100;-62
2020/12/02 04:32:37;;;;;;;4.20;3.90;;;;;;;;;;2080904;28;20108;-63
2020/12/02 04:33:56;;;;;;;4.60;4.20;;;;;;;;;;2078075;28;20034;-62
2020/12/02 04:35:15;;;;;;;4.32;4.03;;;;;;;;;;2080467;28;20424;-65
2020/12/02 04:36:34;;;;;;;4.40;4.00;;;;;;;;;;2081086;28;20017;-62
2020/12/02 04:37:53;;;;;;;4.20;3.90;;;;;;;;;;2080749;28;20045;-63
2020/12/02 04:39:12;;;;;;;4.10;3.80;;;;;;;;;;2080993;28;20021;-62
2020/12/02 04:40:32;;;;;;;4.93;4.53;;;;;;;;;;2081411;28;20025;-62
2020/12/02 04:41:52;;;;;;;3.88;3.53;;;;;;;;;;2082357;28;20105;-62
2020/12/02 04:43:14;;;;;;;4.80;4.40;;;;;;;;;;2079619;28;20026;-62
2020/12/02 04:44:33;;;;;;;3.83;3.53;;;;;;;;;;2081802;28;20030;-62
2020/12/02 04:45:53;;;;;;;4.30;4.00;;;;;;;;;;2080849;28;20807;-63
2020/12/02 04:47:12;;;;;;;4.43;4.03;;;;;;;;;;2081837;28;20033;-62
2020/12/02 04:48:31;;;;;;;4.10;3.80;;;;;;;;;;2080125;28;20034;-62
2020/12/02 04:49:51;;;;;;;4.32;4.03;;;;;;;;;;2077648;28;20022;-62
2020/12/02 04:51:21;;;;;;;4.47;4.07;;;;;;;;;;2081043;28;20417;-62
2020/12/02 04:52:40;;;;;;;4.28;3.97;;;;;;;;;;2081374;28;20033;-63
2020/12/02 04:53:59;;;;;;;4.20;3.90;;;;;;;;;;2071497;28;20037;-64
2020/12/02 04:55:18;;;;;;;4.75;4.22;;;;;;;;;;2077677;28;20025;-63
2020/12/02 04:56:45;;;;;;;4.80;4.35;;;;;;;;;;2078013;28;20029;-63
2020/12/02 04:58:37;;;;;;;4.07;3.58;;;;;;;;;;2073864;28;20018;-63
2020/12/02 04:59:56;;;;;;;4.88;4.47;;;;;;;;;;2075387;28;20061;-63
2020/12/02 05:01:18;;;;;;;5.65;5.15;;;;;;;;;;2081581;28;20025;-62
2020/12/02 05:02:37;;;;;;;5.22;4.72;;;;;;;;;;2080016;28;20021;-62
2020/12/02 05:04:01;;;;;;;5.68;5.18;;;;;;;;;;2078525;28;20034;-63
2020/12/02 05:05:21;;;;;;;5.50;5.00;;;;;;;;;;2076329;28;20030;-63
2020/12/02 05:06:44;;;;;;;6.90;4.75;;;;;;;;;;2081142;28;20397;-63
2020/12/02 05:08:15;;;;;;;5.30;4.80;;;;;;;;;;2081869;28;20112;-65
2020/12/02 05:09:35;;;;;;;5.45;4.95;;;;;;;;;;2073843;28;20124;-64
2020/12/02 05:10:55;;;;;;;5.72;5.22;;;;;;;;;;2079454;28;20088;-65
2020/12/02 05:12:20;;;;;;;5.53;5.03;;;;;;;;;;2081685;28;20416;-64
2020/12/02 05:13:39;;;;;;;6.10;5.60;;;;;;;;;;2081079;28;20037;-64
2020/12/02 05:15:10;;;;;;;6.28;5.78;;;;;;;;;;2081021;28;20029;-64
2020/12/02 05:16:30;;;;;;;5.55;5.07;;;;;;;;;;2080393;28;20038;-63
2020/12/02 05:18:00;;;;;;;6.30;5.70;;;;;;;;;;2076989;28;20026;-65
2020/12/02 05:19:21;;;;;;;5.88;5.38;;;;;;;;;;2079695;28;20057;-64
2020/12/02 05:20:40;;;;;;;5.78;5.30;;;;;;;;;;2080494;28;20112;-63
2020/12/02 05:22:04;;;;;;;6.90;5.78;;;;;;;;;;2076874;28;20108;-63
2020/12/02 05:23:23;;;;;;;6.25;5.30;;;;;;;;;;2078398;28;20026;-64
2020/12/02 05:24:43;;;;;;;7.85;6.03;;;;;;;;;;2080675;28;20482;-64
2020/12/02 05:26:15;;;;;;;6.28;5.72;;;;;;;;;;2080204;28;20029;-64
2020/12/02 05:27:35;;;;;;;6.13;5.57;;;;;;;;;;2077742;28;20057;-64
2020/12/02 05:28:54;;;;;;;5.95;5.35;;;;;;;;;;2079484;28;20041;-65
2020/12/02 05:30:16;;;;;;;6.47;5.88;;;;;;;;;;2077828;28;20029;-64
2020/12/02 05:31:35;;;;;;;6.97;6.25;;;;;;;;;;2079651;28;20021;-63
2020/12/02 05:33:21;;;;;;;6.43;5.78;;;;;;;;;;2077391;28;20434;-65
2020/12/02 05:34:39;;;;;;;6.57;5.93;;;;;;;;;;2079999;28;20029;-63
2020/12/02 05:36:19;;;;;;;6.80;6.10;;;;;;;;;;2079606;28;20030;-64
2020/12/02 05:37:40;;;;;;;7.65;6.50;;;;;;;;;;2077965;28;20414;-63
2020/12/02 05:38:58;;;;;;;7.13;5.88;;;;;;;;;;2082079;28;20354;-65
2020/12/02 05:40:32;;;;;;;6.95;6.25;;;;;;;;;;2077551;28;20038;-65
2020/12/02 05:41:52;;;;;;;7.10;6.25;;;;;;;;;;2079381;28;20057;-64
2020/12/02 05:43:34;;;;;;;7.80;6.63;;;;;;;;;;2080762;28;20489;-64
2020/12/02 05:44:58;;;;;;;8.68;6.63;;;;;;;;;;2070983;28;20398;-65
2020/12/02 05:46:22;;;;;;;7.20;6.38;;;;;;;;;;2080508;28;20490;-65
2020/12/02 05:47:41;;;;;;;10.10;7.38;;;;;;;;;;2078312;28;20105;-64
2020/12/02 05:49:05;;;;;;;9.02;7.28;;;;;;;;;;2075647;28;20472;-66
2020/12/02 05:50:24;;;;;;;10.30;7.53;;;;;;;;;;2076668;28;20474;-64
2020/12/02 05:51:44;;;;;;;8.48;7.22;;;;;;;;;;2080917;28;20416;-63
2020/12/02 05:53:12;;;;;;;8.40;7.40;;;;;;;;;;2077146;28;20025;-65
2020/12/02 05:54:32;;;;;;;8.00;6.88;;;;;;;;;;2079690;28;20473;-64
2020/12/02 05:55:51;;;;;;;10.77;7.93;;;;;;;;;;2077496;28;20061;-64
2020/12/02 05:57:13;;;;;;;10.38;7.43;;;;;;;;;;2072351;28;20113;-65
2020/12/02 05:58:32;;;;;;;9.77;7.55;;;;;;;;;;2078755;28;20022;-64
2020/12/02 05:59:55;;;;;;;8.48;7.07;;;;;;;;;;2073400;28;20030;-64
2020/12/02 06:01:17;;;;;;;9.40;7.65;;;;;;;;;;2095322;28;20412;-65
2020/12/02 06:02:37;;;;;;;9.48;7.18;;;;;;;;;;2085718;28;20100;-65
2020/12/02 06:03:57;;;;;;;10.10;7.38;;;;;;;;;;2078941;28;20034;-64
2020/12/02 06:05:15;;;;;;;12.85;8.35;;;;;;;;;;2077812;28;20025;-65
2020/12/02 06:06:34;;;;;;;9.18;7.43;;;;;;;;;;2080152;28;20033;-64
2020/12/02 06:07:54;;;;;;;8.93;7.22;;;;;;;;;;2082076;28;20112;-65
2020/12/02 06:09:14;;;;;;;12.02;8.20;;;;;;;;;;2079104;28;20038;-64
2020/12/02 06:10:42;;;;;;;10.45;8.02;;;;;;;;;;2079136;28;20112;-63
2020/12/02 06:12:04;;;;;;;12.23;8.73;;;;;;;;;;2077865;28;20061;-63
2020/12/02 06:13:40;;;;;;;11.93;8.27;;;;;;;;;;2081301;28;20108;-63
2020/12/02 06:14:59;;;;;;;10.85;8.13;;;;;;;;;;2076274;28;20041;-63
2020/12/02 06:16:24;;;;;;;12.63;7.90;;;;;;;;;;2079780;28;20026;-63
2020/12/02 06:17:43;;;;;;;11.00;7.95;;;;;;;;;;2076327;28;20026;-63
2020/12/02 06:19:07;;;;;;;12.63;8.82;;;;;;;;;;2076140;28;20483;-64
2020/12/02 06:20:27;;;;;;;11.48;8.70;;;;;;;;;;2076724;28;20041;-63
2020/12/02 06:21:52;;;;;;;11.77;8.52;;;;;;;;;;2078593;28;20030;-66
2020/12/02 06:23:11;;;;;;;11.35;8.73;;;;;;;;;;2074609;28;20033;-67
2020/12/02 06:24:44;;;;;;;14.15;9.05;;;;;;;;;;2080747;28;20030;-66
2020/12/02 06:26:02;;;;;;;11.82;8.30;;;;;;;;;;2078394;28;20021;-66
2020/12/02 06:27:30;;;;;;;11.98;8.15;;;;;;;;;;2083452;28;20024;-65
2020/12/02 06:28:49;;;;;;;12.80;8.70;;;;;;;;;;2078200;28;20073;-66
2020/12/02 06:30:16;;;;;;;15.48;9.48;;;;;;;;;;2079735;28;20061;-66
2020/12/02 06:31:35;;;;;;;12.95;8.68;;;;;;;;;;2079417;28;20061;-66
2020/12/02 06:32:58;;;;;;;13.60;9.52;;;;;;;;;;2080235;28;20033;-66
2020/12/02 06:34:22;;;;;;;13.80;8.77;;;;;;;;;;2078680;28;21136;-66
2020/12/02 06:35:41;;;;;;;14.23;8.73;;;;;;;;;;2078006;28;20034;-66
2020/12/02 06:37:09;;;;;;;12.52;8.75;;;;;;;;;;2077056;28;20021;-66
2020/12/02 06:38:29;;;;;;;12.80;8.40;;;;;;;;;;2074449;28;20022;-67
2020/12/02 06:39:53;;;;;;;12.80;8.73;;;;;;;;;;2077728;28;20017;-67
2020/12/02 06:41:30;;;;;;;14.32;9.07;;;;;;;;;;2077616;28;20101;-66
2020/12/02 06:42:49;;;;;;;16.33;9.02;;;;;;;;;;2077551;28;20076;-66
2020/12/02 06:44:13;;;;;;;12.98;9.23;;;;;;;;;;2075926;28;20411;-66
2020/12/02 06:45:36;;;;;;;14.05;9.10;;;;;;;;;;2075970;28;20509;-69
2020/12/02 06:46:55;;;;;;;13.15;9.02;;;;;;;;;;2073990;28;20451;-67
2020/12/02 06:48:26;;;;;;;13.38;8.85;;;;;;;;;;2074697;28;22059;-67
2020/12/02 06:49:46;;;;;;;12.25;8.70;;;;;;;;;;2079800;28;20025;-67
2020/12/02 06:51:09;;;;;;;14.27;9.77;;;;;;;;;;2080601;28;20022;-66
2020/12/02 06:52:30;;;;;;;12.18;8.73;;;;;;;;;;2080005;28;20069;-65
2020/12/02 06:53:53;;;;;;;13.30;8.90;;;;;;;;;;2076620;28;20110;-65
2020/12/02 06:55:11;;;;;;;;;;;;;;;;;;2078400;28;20029;-66
2020/12/02 06:56:31;;;;;;;12.95;8.60;;;;;;;;;;2079409;28;19908;-65
2020/12/02 06:57:54;;;;;;;12.60;9.23;;;;;;;;;;2078592;28;20030;-65
2020/12/02 06:59:12;;;;;;;12.77;8.93;;;;;;;;;;2075638;28;20056;-65
2020/12/02 07:00:39;;;;;;;12.27;8.50;;;;;;;;;;2077776;28;20025;-67
2020/12/02 07:02:02;;;;;;;11.63;8.63;;;;;;;;;;2082151;28;20029;-66
2020/12/02 07:03:23;;;;;;;11.90;8.32;;;;;;;;;;2080634;28;20034;-65
2020/12/02 07:04:42;;;;;;;13.18;8.02;;;;;;;;;;2081683;28;20425;-66
2020/12/02 07:06:20;;;;;;;12.30;8.73;;;;;;;;;;2082778;28;20061;-66
2020/12/02 07:07:40;;;;;;;12.85;9.02;;;;;;;;;;2080494;28;20034;-69
2020/12/02 07:09:02;;;;;;;12.63;8.85;;;;;;;;;;2080951;28;20029;-67
2020/12/02 07:10:21;;;;;;;12.20;8.65;;;;;;;;;;2081272;28;20065;-66
2020/12/02 07:11:46;;;;;;;12.02;8.57;;;;;;;;;;2078623;28;20104;-65
2020/12/02 07:13:05;;;;;;;15.43;9.30;;;;;;;;;;2074085;28;20017;-66
2020/12/02 07:14:35;;;;;;;13.27;8.90;;;;;;;;;;2080235;28;20117;-66
2020/12/02 07:15:54;;;;;;;12.70;9.48;;;;;;;;;;2082060;28;20382;-66
2020/12/02 07:17:14;;;;;;;16.58;8.95;;;;;;;;;;2076364;28;20033;-67
2020/12/02 07:18:33;;;;;;;13.25;9.48;;;;;;;;;;2078088;28;20382;-66
2020/12/02 07:19:53;;;;;;;13.63;8.82;;;;;;;;;;2075041;28;20473;-66
2020/12/02 07:21:19;;;;;;;13.80;8.98;;;;;;;;;;2081288;28;20121;-66
2020/12/02 07:22:40;;;;;;;12.95;9.02;;;;;;;;;;2081871;28;20489;-66
2020/12/02 07:24:00;;;;;;;12.85;9.30;;;;;;;;;;2082093;28;20034;-66
2020/12/02 07:25:21;;;;;;;14.63;9.43;;;;;;;;;;2076061;28;20034;-66
2020/12/02 07:26:40;;;;;;;13.90;9.32;;;;;;;;;;2079291;28;20033;-65
2020/12/02 07:27:59;;;;;;;14.90;9.80;;;;;;;;;;2081836;28;20045;-67
2020/12/02 07:29:20;;;;;;;14.02;9.13;;;;;;;;;;2081348;28;20068;-66
2020/12/02 07:30:41;;;;;;;16.33;9.77;;;;;;;;;;2078702;28;20034;-66
2020/12/02 07:32:04;;;;;;;15.65;9.70;;;;;;;;;;2081923;28;20026;-66
2020/12/02 07:33:23;;;;;;;15.05;10.00;;;;;;;;;;2081749;28;20037;-66
2020/12/02 07:34:42;;;;;;;19.90;9.15;;;;;;;;;;2080338;28;20017;-66
2020/12/02 07:36:03;;;;;;;12.65;9.18;;;;;;;;;;2080787;28;20029;-66
2020/12/02 07:37:21;;;;;;;14.35;10.07;;;;;;;;;;2081160;28;20029;-66
2020/12/02 07:38:42;;;;;;;15.10;10.10;;;;;;;;;;2081579;28;20473;-66
2020/12/02 07:40:03;;;;;;;15.57;10.00;;;;;;;;;;2082215;28;20101;-66
2020/12/02 07:41:22;;;;;;;19.73;10.38;;;;;;;;;;2077108;28;20037;-66
2020/12/02 07:42:42;;;;;;;16.77;9.80;;;;;;;;;;2079187;28;20021;-66
2020/12/02 07:44:01;;;;;;;17.50;11.07;;;;;;;;;;2078234;28;20469;-67
2020/12/02 07:45:25;;;;;;;15.18;9.68;;;;;;;;;;2080577;28;20034;-66
2020/12/02 07:46:45;;;;;;;16.73;10.05;;;;;;;;;;2080664;28;20057;-66
2020/12/02 07:48:10;;;;;;;15.25;10.20;;;;;;;;;;2082396;28;20466;-66
2020/12/02 07:49:30;;;;;;;13.80;9.45;;;;;;;;;;2083693;28;20144;-66
2020/12/02 07:50:53;;;;;;;16.15;10.07;;;;;;;;;;2081282;28;20489;-65
2020/12/02 07:52:12;;;;;;;;;;;;;;;;;;2080559;28;20022;-65
2020/12/02 07:53:40;;;;;;;14.80;9.82;;;;;;;;;;2077088;28;19913;-66
2020/12/02 07:55:00;;;;;;;18.27;9.25;;;;;;;;;;2079473;28;20025;-65
2020/12/02 07:56:27;;;;;;;16.80;8.77;;;;;;;;;;2081727;28;20101;-65
2020/12/02 07:57:48;;;;;;;15.52;9.50;;;;;;;;;;2080778;28;20022;-67
2020/12/02 07:59:13;;;;;;;13.80;9.18;;;;;;;;;;2084539;28;20032;-66
2020/12/02 08:00:34;;;;;;;16.45;9.65;;;;;;;;;;2082301;28;20506;-65
2020/12/02 08:01:57;;;;;;;16.25;9.85;;;;;;;;;;2079807;28;20029;-66
2020/12/02 08:03:26;;;;;;;22.05;11.73;;;;;;;;;;2080610;28;20084;-65
2020/12/02 08:04:48;;;;;;;14.75;9.70;;;;;;;;;;2076974;28;20025;-65
2020/12/02 08:06:10;;;;;;;15.95;11.00;;;;;;;;;;2080275;28;20485;-66
2020/12/02 08:07:42;;;;;;;17.50;11.55;;;;;;;;;;2081445;28;20477;-65